sensor_id;sensor_type;location;lat;lon;timestamp;pressure;altitude;pressure_sealevel;temperature;humidity
77737;BME280;66903;59.926;30.404;2023-02-01T00:04:34;99115.28;;;25.78;33.09
77737;BME280;66903;59.926;30.404;2023-02-01T00:09:34;99102.53;;;25.75;33.14
77737;BME280;66903;59.926;30.404;2023-02-01T00:14:35;99111.59;;;25.77;32.77
77737;BME280;66903;59.926;30.404;2023-02-01T00:19:38;99116.50;;;25.77;32.99
77737;BME280;66903;59.926;30.404;2023-02-01T00:24:39;99116.50;;;25.77;32.88
77737;BME280;66903;59.926;30.404;2023-02-01T00:29:39;99120.16;;;25.77;32.66
77737;BME280;66903;59.926;30.404;2023-02-01T00:34:40;99121.00;;;25.78;32.74
77737;BME280;66903;59.926;30.404;2023-02-01T00:39:40;99135.31;;;25.78;32.80
77737;BME280;66903;59.926;30.404;2023-02-01T00:44:43;99138.53;;;25.76;32.51
77737;BME280;66903;59.926;30.404;2023-02-01T00:55:34;99159.41;;;25.77;32.49
77737;BME280;66903;59.926;30.404;2023-02-01T01:00:34;99156.53;;;25.77;32.25
77737;BME280;66903;59.926;30.404;2023-02-01T01:05:35;99168.81;;;25.77;32.67
77737;BME280;66903;59.926;30.404;2023-02-01T01:10:36;99171.66;;;25.77;32.46
77737;BME280;66903;59.926;30.404;2023-02-01T01:15:38;99173.72;;;25.77;32.40
77737;BME280;66903;59.926;30.404;2023-02-01T01:20:39;99174.53;;;25.77;32.62
77737;BME280;66903;59.926;30.404;2023-02-01T01:26:16;99176.69;;;25.80;32.58
77737;BME280;66903;59.926;30.404;2023-02-01T01:31:23;99164.28;;;25.76;32.35
77737;BME280;66903;59.926;30.404;2023-02-01T01:36:25;99173.72;;;25.77;32.61
77737;BME280;66903;59.926;30.404;2023-02-01T01:41:30;99174.03;;;25.75;32.21
77737;BME280;66903;59.926;30.404;2023-02-01T01:46:32;99171.53;;;25.74;32.66
77737;BME280;66903;59.926;30.404;2023-02-01T01:51:39;99177.75;;;25.76;32.18
77737;BME280;66903;59.926;30.404;2023-02-01T01:56:41;99191.19;;;25.75;32.24
77737;BME280;66903;59.926;30.404;2023-02-01T02:01:42;99192.03;;;25.76;32.33
77737;BME280;66903;59.926;30.404;2023-02-01T02:06:51;99197.41;;;25.77;32.08
77737;BME280;66903;59.926;30.404;2023-02-01T02:11:55;99200.63;;;25.76;31.96
77737;BME280;66903;59.926;30.404;2023-02-01T02:17:05;99203.13;;;25.77;32.26
77737;BME280;66903;59.926;30.404;2023-02-01T02:43:41;99214.44;;;25.74;31.77
77737;BME280;66903;59.926;30.404;2023-02-01T02:49:20;99223.88;;;25.74;31.83
77737;BME280;66903;59.926;30.404;2023-02-01T03:00:38;99225.19;;;25.77;32.18
77737;BME280;66903;59.926;30.404;2023-02-01T03:05:57;99224.22;;;25.73;31.94
77737;BME280;66903;59.926;30.404;2023-02-01T03:11:06;99227.22;;;25.76;31.71
77737;BME280;66903;59.926;30.404;2023-02-01T03:16:22;99238.78;;;25.80;31.83
77737;BME280;66903;59.926;30.404;2023-02-01T03:21:29;99229.03;;;25.93;31.89
77737;BME280;66903;59.926;30.404;2023-02-01T03:26:33;99230.19;;;25.80;31.79
77737;BME280;66903;59.926;30.404;2023-02-01T03:31:38;99238.09;;;25.95;31.89
77737;BME280;66903;59.926;30.404;2023-02-01T03:36:44;99243.44;;;25.84;31.69
77737;BME280;66903;59.926;30.404;2023-02-01T03:41:57;99250.34;;;25.83;32.07
77737;BME280;66903;59.926;30.404;2023-02-01T03:47:25;99250.72;;;25.82;32.00
77737;BME280;66903;59.926;30.404;2023-02-01T03:52:47;99249.25;;;25.76;31.93
77737;BME280;66903;59.926;30.404;2023-02-01T03:58:01;99252.47;;;25.74;32.09
77737;BME280;66903;59.926;30.404;2023-02-01T04:03:05;99266.63;;;25.71;32.44
77737;BME280;66903;59.926;30.404;2023-02-01T04:08:06;99270.22;;;25.68;32.67
77737;BME280;66903;59.926;30.404;2023-02-01T04:13:07;99263.63;;;25.67;32.38
77737;BME280;66903;59.926;30.404;2023-02-01T04:18:10;99275.38;;;25.54;32.25
77737;BME280;66903;59.926;30.404;2023-02-01T04:23:16;99287.94;;;25.41;32.78
77737;BME280;66903;59.926;30.404;2023-02-01T04:28:26;99300.13;;;25.29;33.02
77737;BME280;66903;59.926;30.404;2023-02-01T04:33:26;99300.47;;;25.28;32.79
77737;BME280;66903;59.926;30.404;2023-02-01T04:38:27;99305.69;;;25.26;32.89
77737;BME280;66903;59.926;30.404;2023-02-01T04:43:29;99312.13;;;25.23;32.98
77737;BME280;66903;59.926;30.404;2023-02-01T04:48:30;99311.84;;;25.15;32.58
77737;BME280;66903;59.926;30.404;2023-02-01T04:53:30;99319.13;;;25.04;32.89
77737;BME280;66903;59.926;30.404;2023-02-01T04:58:31;99325.84;;;25.00;32.70
77737;BME280;66903;59.926;30.404;2023-02-01T05:03:32;99342.38;;;24.94;32.64
77737;BME280;66903;59.926;30.404;2023-02-01T05:08:33;99338.03;;;24.88;32.45
77737;BME280;66903;59.926;30.404;2023-02-01T05:13:33;99340.59;;;24.81;32.45
77737;BME280;66903;59.926;30.404;2023-02-01T05:18:49;99334.59;;;24.74;32.31
77737;BME280;66903;59.926;30.404;2023-02-01T05:23:49;99338.75;;;24.68;32.12
77737;BME280;66903;59.926;30.404;2023-02-01T05:29:09;99345.16;;;24.65;32.10
77737;BME280;66903;59.926;30.404;2023-02-01T05:34:10;99350.72;;;24.62;31.88
77737;BME280;66903;59.926;30.404;2023-02-01T05:39:11;99346.88;;;24.58;31.89
77737;BME280;66903;59.926;30.404;2023-02-01T05:44:12;99351.28;;;24.55;31.87
77737;BME280;66903;59.926;30.404;2023-02-01T05:49:12;99355.63;;;24.53;31.63
77737;BME280;66903;59.926;30.404;2023-02-01T05:54:13;99364.88;;;24.50;31.91
77737;BME280;66903;59.926;30.404;2023-02-01T05:59:13;99372.41;;;24.71;31.92
77737;BME280;66903;59.926;30.404;2023-02-01T06:04:14;99374.44;;;25.00;31.21
77737;BME280;66903;59.926;30.404;2023-02-01T06:09:14;99375.00;;;25.23;31.19
77737;BME280;66903;59.926;30.404;2023-02-01T06:14:14;99370.84;;;25.41;31.27
77737;BME280;66903;59.926;30.404;2023-02-01T06:19:15;99378.34;;;25.54;30.89
77737;BME280;66903;59.926;30.404;2023-02-01T06:24:16;99389.41;;;25.55;31.29
77737;BME280;66903;59.926;30.404;2023-02-01T06:29:16;99385.84;;;25.58;31.24
77737;BME280;66903;59.926;30.404;2023-02-01T06:34:17;99394.56;;;25.62;30.75
77737;BME280;66903;59.926;30.404;2023-02-01T06:39:18;99396.75;;;25.65;31.05
77737;BME280;66903;59.926;30.404;2023-02-01T06:44:18;99399.75;;;25.68;30.98
77737;BME280;66903;59.926;30.404;2023-02-01T06:49:19;99396.19;;;25.71;30.63
77737;BME280;66903;59.926;30.404;2023-02-01T06:54:20;99396.34;;;25.75;30.90
77737;BME280;66903;59.926;30.404;2023-02-01T06:59:20;99403.00;;;25.79;30.64
77737;BME280;66903;59.926;30.404;2023-02-01T07:04:21;99409.72;;;25.83;30.54
77737;BME280;66903;59.926;30.404;2023-02-01T07:09:21;99418.44;;;25.86;30.74
77737;BME280;66903;59.926;30.404;2023-02-01T07:14:22;99422.28;;;25.90;30.61
77737;BME280;66903;59.926;30.404;2023-02-01T07:19:22;99436.38;;;25.95;30.53
77737;BME280;66903;59.926;30.404;2023-02-01T07:24:22;99441.88;;;26.00;30.28
77737;BME280;66903;59.926;30.404;2023-02-01T07:29:23;99440.88;;;26.05;30.58
77737;BME280;66903;59.926;30.404;2023-02-01T07:34:23;99448.41;;;26.09;30.32
77737;BME280;66903;59.926;30.404;2023-02-01T07:39:24;99453.44;;;26.12;30.40
77737;BME280;66903;59.926;30.404;2023-02-01T07:44:24;99455.59;;;26.15;30.08
77737;BME280;66903;59.926;30.404;2023-02-01T07:49:25;99472.06;;;26.18;29.99
77737;BME280;66903;59.926;30.404;2023-02-01T07:54:26;99466.50;;;26.22;30.17
77737;BME280;66903;59.926;30.404;2023-02-01T07:59:26;99469.34;;;26.22;30.28
77737;BME280;66903;59.926;30.404;2023-02-01T08:04:27;99479.25;;;26.24;30.34
77737;BME280;66903;59.926;30.404;2023-02-01T08:09:29;99469.97;;;26.28;30.32
77737;BME280;66903;59.926;30.404;2023-02-01T08:14:31;99490.16;;;26.31;30.56
77737;BME280;66903;59.926;30.404;2023-02-01T08:19:31;99475.97;;;26.35;30.53
77737;BME280;66903;59.926;30.404;2023-02-01T08:24:33;99477.28;;;26.37;30.51
77737;BME280;66903;59.926;30.404;2023-02-01T08:29:34;99482.06;;;26.33;30.42
77737;BME280;66903;59.926;30.404;2023-02-01T08:34:34;99483.94;;;26.29;30.47
77737;BME280;66903;59.926;30.404;2023-02-01T08:39:35;99494.06;;;26.27;30.48
77737;BME280;66903;59.926;30.404;2023-02-01T08:44:36;99489.03;;;26.23;30.24
77737;BME280;66903;59.926;30.404;2023-02-01T08:49:37;99493.09;;;26.23;30.37
77737;BME280;66903;59.926;30.404;2023-02-01T08:54:37;99485.47;;;26.27;30.35
77737;BME280;66903;59.926;30.404;2023-02-01T08:59:40;99498.25;;;26.29;30.50
77737;BME280;66903;59.926;30.404;2023-02-01T09:04:41;99496.69;;;26.32;30.22
77737;BME280;66903;59.926;30.404;2023-02-01T09:09:42;99501.25;;;26.33;30.26
77737;BME280;66903;59.926;30.404;2023-02-01T09:14:44;99502.09;;;26.33;29.93
77737;BME280;66903;59.926;30.404;2023-02-01T09:19:44;99499.09;;;26.30;29.79
77737;BME280;66903;59.926;30.404;2023-02-01T09:24:45;99495.41;;;26.29;29.96
77737;BME280;66903;59.926;30.404;2023-02-01T09:29:45;99504.81;;;26.30;29.90
77737;BME280;66903;59.926;30.404;2023-02-01T09:34:51;99512.91;;;26.28;29.96
77737;BME280;66903;59.926;30.404;2023-02-01T09:39:51;99510.06;;;26.28;29.59
77737;BME280;66903;59.926;30.404;2023-02-01T09:50:04;99514.72;;;26.32;29.87
77737;BME280;66903;59.926;30.404;2023-02-01T09:55:33;99505.25;;;26.40;29.76
77737;BME280;66903;59.926;30.404;2023-02-01T10:00:38;99503.53;;;26.39;29.95
77737;BME280;66903;59.926;30.404;2023-02-01T10:11:27;99513.47;;;26.42;29.97
77737;BME280;66903;59.926;30.404;2023-02-01T10:16:51;99511.09;;;26.44;30.46
77737;BME280;66903;59.926;30.404;2023-02-01T10:22:04;99509.41;;;26.43;30.85
77737;BME280;66903;59.926;30.404;2023-02-01T10:27:23;99504.03;;;26.41;31.02
77737;BME280;66903;59.926;30.404;2023-02-01T10:32:32;99519.56;;;26.40;31.03
77737;BME280;66903;59.926;30.404;2023-02-01T10:37:44;99514.16;;;26.39;30.82
77737;BME280;66903;59.926;30.404;2023-02-01T10:42:52;99511.66;;;26.37;30.95
77737;BME280;66903;59.926;30.404;2023-02-01T10:47:55;99521.44;;;26.36;30.74
77737;BME280;66903;59.926;30.404;2023-02-01T10:58:18;99517.72;;;26.36;30.68
77737;BME280;66903;59.926;30.404;2023-02-01T11:03:42;99522.41;;;26.40;30.92
77737;BME280;66903;59.926;30.404;2023-02-01T11:08:52;99514.66;;;26.41;30.78
77737;BME280;66903;59.926;30.404;2023-02-01T11:14:15;99520.44;;;26.53;30.85
77737;BME280;66903;59.926;30.404;2023-02-01T11:19:17;99519.25;;;26.54;30.44
77737;BME280;66903;59.926;30.404;2023-02-01T11:24:29;99516.53;;;26.57;30.17
77737;BME280;66903;59.926;30.404;2023-02-01T11:29:39;99516.53;;;26.57;30.34
77737;BME280;66903;59.926;30.404;2023-02-01T11:34:53;99516.31;;;26.62;30.17
77737;BME280;66903;59.926;30.404;2023-02-01T11:39:59;99518.31;;;26.62;30.22
77737;BME280;66903;59.926;30.404;2023-02-01T11:45:24;99522.03;;;26.62;30.12
77737;BME280;66903;59.926;30.404;2023-02-01T11:50:39;99520.09;;;26.54;30.25
77737;BME280;66903;59.926;30.404;2023-02-01T12:06:54;99518.50;;;26.45;29.86
77737;BME280;66903;59.926;30.404;2023-02-01T12:17:25;99516.06;;;26.35;29.44
77737;BME280;66903;59.926;30.404;2023-02-01T12:43:46;99531.75;;;26.49;29.61
77737;BME280;66903;59.926;30.404;2023-02-01T12:48:56;99531.97;;;26.44;29.43
77737;BME280;66903;59.926;30.404;2023-02-01T12:54:16;99520.16;;;26.46;29.53
77737;BME280;66903;59.926;30.404;2023-02-01T12:59:51;99524.13;;;26.53;29.49
77737;BME280;66903;59.926;30.404;2023-02-01T13:15:49;99529.38;;;26.51;29.35
77737;BME280;66903;59.926;30.404;2023-02-01T13:21:07;99531.19;;;26.56;29.27
77737;BME280;66903;59.926;30.404;2023-02-01T13:26:08;99529.50;;;26.55;29.34
77737;BME280;66903;59.926;30.404;2023-02-01T13:42:04;99535.50;;;26.62;29.37
77737;BME280;66903;59.926;30.404;2023-02-01T13:52:36;99533.00;;;26.60;29.71
77737;BME280;66903;59.926;30.404;2023-02-01T13:57:39;99535.94;;;26.52;29.37
77737;BME280;66903;59.926;30.404;2023-02-01T14:08:09;99543.19;;;26.49;29.52
77737;BME280;66903;59.926;30.404;2023-02-01T14:18:49;99551.88;;;26.41;29.42
77737;BME280;66903;59.926;30.404;2023-02-01T14:34:03;99563.25;;;26.29;29.39
77737;BME280;66903;59.926;30.404;2023-02-01T14:39:20;99565.28;;;26.28;29.57
77737;BME280;66903;59.926;30.404;2023-02-01T14:44:26;99573.41;;;26.26;29.30
77737;BME280;66903;59.926;30.404;2023-02-01T14:49:31;99573.41;;;26.26;29.29
77737;BME280;66903;59.926;30.404;2023-02-01T14:54:32;99572.41;;;26.22;29.25
77737;BME280;66903;59.926;30.404;2023-02-01T14:59:34;99576.78;;;26.19;29.35
77737;BME280;66903;59.926;30.404;2023-02-01T15:04:41;99590.97;;;26.16;29.43
77737;BME280;66903;59.926;30.404;2023-02-01T15:15:39;99591.31;;;26.14;29.10
77737;BME280;66903;59.926;30.404;2023-02-01T15:20:40;99597.81;;;26.23;29.57
77737;BME280;66903;59.926;30.404;2023-02-01T15:26:02;99606.69;;;26.10;29.45
77737;BME280;66903;59.926;30.404;2023-02-01T15:31:05;99599.97;;;26.06;29.49
77737;BME280;66903;59.926;30.404;2023-02-01T15:41:15;99601.88;;;25.56;30.05
77737;BME280;66903;59.926;30.404;2023-02-01T15:46:22;99603.44;;;25.45;30.22
77737;BME280;66903;59.926;30.404;2023-02-01T15:51:28;99593.16;;;25.35;29.68
77737;BME280;66903;59.926;30.404;2023-02-01T15:56:40;99580.44;;;25.24;29.89
77737;BME280;66903;59.926;30.404;2023-02-01T16:01:41;99596.41;;;25.25;30.46
77737;BME280;66903;59.926;30.404;2023-02-01T16:06:59;99599.25;;;25.25;30.03
77737;BME280;66903;59.926;30.404;2023-02-01T16:12:02;99608.88;;;25.21;30.32
77737;BME280;66903;59.926;30.404;2023-02-01T16:17:03;99612.00;;;25.36;30.13
77737;BME280;66903;59.926;30.404;2023-02-01T16:22:04;99613.88;;;25.41;30.02
77737;BME280;66903;59.926;30.404;2023-02-01T16:27:04;99610.66;;;25.34;30.03
77737;BME280;66903;59.926;30.404;2023-02-01T16:32:19;99620.44;;;25.33;30.02
77737;BME280;66903;59.926;30.404;2023-02-01T16:37:23;99618.75;;;25.40;30.21
77737;BME280;66903;59.926;30.404;2023-02-01T16:42:24;99623.75;;;25.52;29.93
77737;BME280;66903;59.926;30.404;2023-02-01T16:47:25;99611.16;;;25.44;29.63
77737;BME280;66903;59.926;30.404;2023-02-01T16:52:26;99628.66;;;25.43;29.83
77737;BME280;66903;59.926;30.404;2023-02-01T16:57:27;99631.53;;;25.34;30.98
77737;BME280;66903;59.926;30.404;2023-02-01T17:02:29;99626.84;;;25.30;31.13
77737;BME280;66903;59.926;30.404;2023-02-01T17:07:30;99636.41;;;25.25;31.48
77737;BME280;66903;59.926;30.404;2023-02-01T17:12:31;99630.88;;;25.20;31.28
77737;BME280;66903;59.926;30.404;2023-02-01T17:17:36;99631.56;;;25.17;32.01
77737;BME280;66903;59.926;30.404;2023-02-01T17:22:37;99632.06;;;25.10;32.04
77737;BME280;66903;59.926;30.404;2023-02-01T17:27:38;99626.88;;;25.04;32.46
77737;BME280;66903;59.926;30.404;2023-02-01T17:32:41;99628.41;;;25.01;32.74
77737;BME280;66903;59.926;30.404;2023-02-01T17:37:42;99628.25;;;24.98;32.06
77737;BME280;66903;59.926;30.404;2023-02-01T17:42:42;99626.03;;;24.95;32.15
77737;BME280;66903;59.926;30.404;2023-02-01T17:47:43;99626.72;;;24.92;31.96
77737;BME280;66903;59.926;30.404;2023-02-01T17:52:43;99629.91;;;24.90;31.90
77737;BME280;66903;59.926;30.404;2023-02-01T17:57:44;99630.09;;;24.85;32.25
77737;BME280;66903;59.926;30.404;2023-02-01T18:02:44;99628.41;;;24.84;32.17
77737;BME280;66903;59.926;30.404;2023-02-01T18:07:45;99631.09;;;24.81;31.76
77737;BME280;66903;59.926;30.404;2023-02-01T18:12:46;99627.25;;;24.77;32.06
77737;BME280;66903;59.926;30.404;2023-02-01T18:17:46;99644.69;;;24.75;31.96
77737;BME280;66903;59.926;30.404;2023-02-01T18:22:47;99648.25;;;24.72;31.74
77737;BME280;66903;59.926;30.404;2023-02-01T18:27:49;99649.09;;;24.73;31.62
77737;BME280;66903;59.926;30.404;2023-02-01T18:32:51;99633.44;;;24.70;31.27
77737;BME280;66903;59.926;30.404;2023-02-01T18:37:52;99642.16;;;24.65;31.16
77737;BME280;66903;59.926;30.404;2023-02-01T18:42:55;99660.13;;;24.57;30.78
77737;BME280;66903;59.926;30.404;2023-02-01T18:47:58;99651.88;;;24.47;30.63
77737;BME280;66903;59.926;30.404;2023-02-01T18:53:02;99654.72;;;24.39;30.60
77737;BME280;66903;59.926;30.404;2023-02-01T18:58:03;99649.50;;;24.32;30.60
77737;BME280;66903;59.926;30.404;2023-02-01T19:03:05;99647.66;;;24.28;30.75
77737;BME280;66903;59.926;30.404;2023-02-01T19:08:07;99645.81;;;24.23;30.27
77737;BME280;66903;59.926;30.404;2023-02-01T19:13:10;99643.09;;;24.18;30.61
77737;BME280;66903;59.926;30.404;2023-02-01T19:18:12;99643.28;;;24.13;30.15
77737;BME280;66903;59.926;30.404;2023-02-01T19:23:14;99638.38;;;24.05;30.16
77737;BME280;66903;59.926;30.404;2023-02-01T19:28:15;99652.16;;;24.03;30.26
77737;BME280;66903;59.926;30.404;2023-02-01T19:33:16;99649.66;;;24.10;30.49
77737;BME280;66903;59.926;30.404;2023-02-01T19:38:16;99644.66;;;24.24;30.31
77737;BME280;66903;59.926;30.404;2023-02-01T19:43:17;99650.53;;;24.36;30.37
77737;BME280;66903;59.926;30.404;2023-02-01T19:48:17;99646.66;;;24.32;30.61
77737;BME280;66903;59.926;30.404;2023-02-01T19:53:18;99649.00;;;24.30;30.92
77737;BME280;66903;59.926;30.404;2023-02-01T19:58:24;99658.41;;;24.31;31.08
77737;BME280;66903;59.926;30.404;2023-02-01T20:03:26;99653.72;;;24.35;30.87
77737;BME280;66903;59.926;30.404;2023-02-01T20:08:26;99654.91;;;24.42;31.61
77737;BME280;66903;59.926;30.404;2023-02-01T20:13:27;99673.56;;;24.65;31.48
77737;BME280;66903;59.926;30.404;2023-02-01T20:18:28;99662.84;;;24.88;31.47
77737;BME280;66903;59.926;30.404;2023-02-01T20:23:28;99662.00;;;25.04;31.73
77737;BME280;66903;59.926;30.404;2023-02-01T20:28:29;99672.41;;;25.17;31.80
77737;BME280;66903;59.926;30.404;2023-02-01T20:33:30;99663.16;;;25.29;32.02
77737;BME280;66903;59.926;30.404;2023-02-01T20:38:31;99662.63;;;25.36;31.88
77737;BME280;66903;59.926;30.404;2023-02-01T20:43:32;99669.72;;;25.38;32.04
77737;BME280;66903;59.926;30.404;2023-02-01T20:48:33;99669.88;;;25.42;31.88
77737;BME280;66903;59.926;30.404;2023-02-01T20:53:33;99667.03;;;25.42;31.51
77737;BME280;66903;59.926;30.404;2023-02-01T20:58:34;99664.31;;;25.45;31.93
77737;BME280;66903;59.926;30.404;2023-02-01T21:03:35;99673.06;;;25.49;31.97
77737;BME280;66903;59.926;30.404;2023-02-01T21:08:35;99678.63;;;25.45;32.33
77737;BME280;66903;59.926;30.404;2023-02-01T21:13:38;99682.47;;;25.41;32.48
77737;BME280;66903;59.926;30.404;2023-02-01T21:24:19;99677.09;;;25.31;33.10
77737;BME280;66903;59.926;30.404;2023-02-01T21:29:20;99684.31;;;25.28;32.96
77737;BME280;66903;59.926;30.404;2023-02-01T21:40:02;99677.38;;;21.65;33.57
77737;BME280;66903;59.926;30.404;2023-02-01T21:45:02;99683.47;;;20.99;35.27
77737;BME280;66903;59.926;30.404;2023-02-01T21:50:35;99681.84;;;21.84;34.91
77737;BME280;66903;59.926;30.404;2023-02-01T21:55:35;99689.47;;;22.65;34.25
77737;BME280;66903;59.926;30.404;2023-02-01T22:00:45;99696.38;;;23.31;33.65
77737;BME280;66903;59.926;30.404;2023-02-01T22:05:57;99698.81;;;23.76;33.25
77737;BME280;66903;59.926;30.404;2023-02-01T22:10:58;99698.16;;;24.10;33.12
77737;BME280;66903;59.926;30.404;2023-02-01T22:15:58;99703.25;;;24.39;32.86
77737;BME280;66903;59.926;30.404;2023-02-01T22:21:29;99708.50;;;24.62;32.97
77737;BME280;66903;59.926;30.404;2023-02-01T22:26:33;99713.25;;;24.75;32.19
77737;BME280;66903;59.926;30.404;2023-02-01T22:31:34;99706.88;;;24.87;32.58
77737;BME280;66903;59.926;30.404;2023-02-01T22:36:34;99713.63;;;24.99;32.31
77737;BME280;66903;59.926;30.404;2023-02-01T22:41:35;99705.88;;;25.08;32.63
77737;BME280;66903;59.926;30.404;2023-02-01T22:46:44;99712.91;;;25.19;32.12
77737;BME280;66903;59.926;30.404;2023-02-01T22:52:41;99713.75;;;25.29;32.27
77737;BME280;66903;59.926;30.404;2023-02-01T22:57:41;99708.03;;;25.29;32.10
77737;BME280;66903;59.926;30.404;2023-02-01T23:02:45;99705.84;;;25.34;31.94
77737;BME280;66903;59.926;30.404;2023-02-01T23:07:55;99708.56;;;25.39;32.30
77737;BME280;66903;59.926;30.404;2023-02-01T23:13:10;99715.63;;;25.42;32.11
77737;BME280;66903;59.926;30.404;2023-02-01T23:18:30;99712.09;;;25.45;31.93
77737;BME280;66903;59.926;30.404;2023-02-01T23:23:30;99718.31;;;25.47;31.76
77737;BME280;66903;59.926;30.404;2023-02-01T23:28:31;99715.59;;;25.50;31.73
77737;BME280;66903;59.926;30.404;2023-02-01T23:39:22;99714.22;;;25.56;31.91
77737;BME280;66903;59.926;30.404;2023-02-01T23:44:22;99718.78;;;25.57;31.91
77737;BME280;66903;59.926;30.404;2023-02-01T23:49:23;99720.81;;;25.57;31.89
77737;BME280;66903;59.926;30.404;2023-02-01T23:54:24;99717.25;;;25.60;31.90
77737;BME280;66903;59.926;30.404;2023-02-01T23:59:25;99724.66;;;25.61;31.78
